Time;durP1;ratioP1;P1;durP2;ratioP2;P2;SDS_P1;SDS_P2;PMS_P1;PMS_P2;Temp;Humidity;BMP_temperature;BMP_pressure;BME280_temperature;BME280_humidity;BME280_pressure;Samples;Min_cycle;Max_cycle;Signal;HPM_P1;HPM_P2
2020/12/15 00:01:47;;;;;;;9.55;7.30;;;22.60;49.00;;;;;;5012810;28;45341;-56
2020/12/15 00:04:13;;;;;;;10.40;8.20;;;22.60;49.00;;;;;;5012951;28;45626;-52
2020/12/15 00:06:39;;;;;;;11.57;7.88;;;22.60;49.00;;;;;;5012376;28;45982;-53
2020/12/15 00:09:04;;;;;;;10.18;8.27;;;22.70;49.10;;;;;;5012846;28;45409;-57
2020/12/15 00:11:30;;;;;;;9.65;7.88;;;22.60;49.00;;;;;;5012811;28;45336;-54
2020/12/15 00:13:55;;;;;;;11.10;7.88;;;22.60;49.00;;;;;;5029269;28;45335;-56
2020/12/15 00:16:21;;;;;;;10.57;7.88;;;22.60;49.00;;;;;;5011978;28;45315;-54
2020/12/15 00:18:47;;;;;;;9.57;7.00;;;22.60;49.00;;;;;;5012422;28;45316;-53
2020/12/15 00:21:20;;;;;;;11.57;7.85;;;22.60;49.00;;;;;;5012106;28;45364;-53
2020/12/15 00:23:46;;;;;;;9.80;7.65;;;22.60;49.00;;;;;;5012784;28;45673;-52
2020/12/15 00:26:11;;;;;;;9.43;7.97;;;22.50;49.00;;;;;;5012406;28;46103;-54
2020/12/15 00:28:38;;;;;;;11.80;8.30;;;22.50;49.00;;;;;;5028411;28;45394;-53
2020/12/15 00:31:04;;;;;;;12.80;8.15;;;22.50;49.00;;;;;;5028701;28;45368;-54
2020/12/15 00:33:29;;;;;;;11.23;8.20;;;22.50;49.00;;;;;;5012467;28;45410;-55
2020/12/15 00:35:55;;;;;;;9.77;7.40;;;22.50;49.00;;;;;;5012114;28;45334;-54
2020/12/15 00:38:21;;;;;;;10.50;7.82;;;22.50;49.00;;;;;;5029958;28;45280;-56
2020/12/15 00:40:46;;;;;;;9.65;8.02;;;22.50;49.00;;;;;;5032213;28;45372;-53
2020/12/15 00:43:12;;;;;;;10.45;7.63;;;22.50;49.00;;;;;;5032333;28;45504;-53
2020/12/15 00:45:37;;;;;;;9.55;7.47;;;22.50;49.00;;;;;;5031391;28;46813;-53
2020/12/15 00:48:03;;;;;;;11.77;8.18;;;22.50;49.00;;;;;;5031801;28;45418;-56
2020/12/15 00:50:29;;;;;;;9.10;6.82;;;22.50;49.00;;;;;;5031892;28;45313;-56
2020/12/15 00:52:55;;;;;;;9.85;7.38;;;22.50;49.00;;;;;;5032061;28;45649;-54
2020/12/15 00:55:21;;;;;;;9.40;7.60;;;22.40;49.00;;;;;;5031528;28;46949;-54
2020/12/15 00:57:46;;;;;;;10.07;7.28;;;22.40;49.00;;;;;;5031649;28;45437;-54
2020/12/15 01:00:13;;;;;;;9.27;7.30;;;22.40;49.00;;;;;;5031570;28;45320;-54
2020/12/15 01:02:39;;;;;;;9.65;7.75;;;22.50;49.00;;;;;;5032046;28;45288;-52
2020/12/15 01:05:05;;;;;;;10.48;7.70;;;22.40;49.00;;;;;;5030994;28;45546;-56
2020/12/15 01:07:30;;;;;;;9.48;6.90;;;22.40;49.00;;;;;;5031584;28;45328;-53
2020/12/15 01:09:56;;;;;;;9.20;7.00;;;22.40;49.00;;;;;;5031320;28;45340;-54
2020/12/15 01:12:22;;;;;;;9.13;7.03;;;22.40;49.00;;;;;;5031856;28;45622;-54
2020/12/15 01:14:48;;;;;;;10.75;7.38;;;22.40;49.00;;;;;;5031238;28;47220;-52
2020/12/15 01:17:14;;;;;;;10.43;7.03;;;22.40;49.00;;;;;;5030948;28;45365;-53
2020/12/15 01:19:40;;;;;;;10.15;7.40;;;22.40;49.00;;;;;;5031508;28;45369;-53
2020/12/15 01:22:06;;;;;;;9.63;7.18;;;22.40;49.00;;;;;;5031638;28;45367;-54
2020/12/15 01:24:32;;;;;;;9.95;7.30;;;22.40;49.00;;;;;;5030785;28;46134;-53
2020/12/15 01:26:57;;;;;;;9.65;7.13;;;22.40;49.00;;;;;;5029622;28;45307;-53
2020/12/15 01:29:23;;;;;;;10.25;7.30;;;22.40;49.60;;;;;;5031126;28;45570;-51
2020/12/15 01:31:48;;;;;;;8.98;7.35;;;22.40;49.00;;;;;;5031076;28;45308;-52
2020/12/15 01:34:14;;;;;;;8.55;6.97;;;22.40;49.10;;;;;;5030730;28;46355;-52
2020/12/15 01:36:40;;;;;;;10.02;7.68;;;22.30;49.00;;;;;;5030411;28;45288;-54
2020/12/15 01:39:05;;;;;;;10.38;7.97;;;22.30;49.10;;;;;;5023078;28;45223;-53
2020/12/15 01:41:31;;;;;;;8.60;7.25;;;22.30;49.10;;;;;;5011441;28;45823;-52
2020/12/15 01:43:57;;;;;;;9.90;7.38;;;22.30;49.10;;;;;;5010887;28;46994;-53
2020/12/15 01:46:24;;;;;;;11.15;7.95;;;22.30;49.10;;;;;;5011163;28;45292;-52
2020/12/15 01:48:50;;;;;;;9.13;7.20;;;22.30;49.10;;;;;;5011391;28;45285;-53
2020/12/15 01:51:16;;;;;;;9.25;7.05;;;22.30;49.10;;;;;;5011159;28;45627;-55
2020/12/15 01:53:43;;;;;;;8.70;6.72;;;22.20;49.10;;;;;;5010919;28;45455;-54
2020/12/15 01:56:09;;;;;;;9.05;7.22;;;22.20;49.10;;;;;;5010930;28;45318;-52
2020/12/15 01:58:35;;;;;;;9.43;7.03;;;22.30;49.10;;;;;;5010833;28;45331;-52
2020/12/15 02:01:00;;;;;;;9.00;7.10;;;22.20;49.10;;;;;;5011376;28;45510;-54
2020/12/15 02:03:26;;;;;;;9.85;7.28;;;22.20;49.10;;;;;;5027053;28;47254;-52
2020/12/15 02:05:52;;;;;;;10.70;8.15;;;22.20;49.20;;;;;;5027946;28;45220;-52
2020/12/15 02:08:17;;;;;;;9.00;7.45;;;22.20;49.20;;;;;;5010797;28;45353;-53
2020/12/15 02:10:43;;;;;;;8.80;7.47;;;22.20;49.20;;;;;;5027815;28;45280;-53
2020/12/15 02:13:08;;;;;;;9.73;7.55;;;22.20;49.20;;;;;;5022360;28;46246;-53
2020/12/15 02:15:34;;;;;;;8.93;6.82;;;22.20;49.20;;;;;;5028857;28;45295;-52
2020/12/15 02:17:59;;;;;;;8.73;6.20;;;22.20;49.20;;;;;;5024076;28;45355;-55
2020/12/15 02:20:25;;;;;;;10.10;7.85;;;22.10;49.20;;;;;;5030380;28;45455;-53
2020/12/15 02:22:51;;;;;;;9.90;7.38;;;22.10;49.20;;;;;;5026590;28;47391;-54
2020/12/15 02:25:16;;;;;;;10.15;6.82;;;22.10;49.20;;;;;;5026104;28;45478;-53
2020/12/15 02:27:42;;;;;;;8.50;6.35;;;22.10;49.20;;;;;;5032120;28;45427;-51
2020/12/15 02:30:07;;;;;;;8.95;7.20;;;22.10;49.20;;;;;;5026342;28;45251;-55
2020/12/15 02:32:34;;;;;;;9.50;7.63;;;22.10;49.20;;;;;;5026194;28;46845;-52
2020/12/15 02:34:59;;;;;;;8.38;6.90;;;22.10;49.20;;;;;;5026600;28;45313;-54
2020/12/15 02:37:25;;;;;;;9.50;7.35;;;22.10;49.20;;;;;;5030894;28;45460;-51
2020/12/15 02:39:51;;;;;;;9.93;7.10;;;22.10;49.20;;;;;;5046813;28;45458;-54
2020/12/15 02:42:16;;;;;;;8.70;6.38;;;22.10;49.20;;;;;;5025552;28;46610;-54
2020/12/15 02:44:42;;;;;;;8.95;6.55;;;22.10;49.30;;;;;;5027094;28;45221;-52
2020/12/15 02:47:07;;;;;;;8.63;6.47;;;22.10;49.30;;;;;;5025019;28;45751;-53
2020/12/15 02:49:33;;;;;;;8.65;7.15;;;22.00;49.20;;;;;;5010741;28;45542;-52
2020/12/15 02:51:59;;;;;;;9.02;7.20;;;22.00;49.20;;;;;;5022688;28;46588;-55
2020/12/15 02:54:24;;;;;;;8.93;6.88;;;22.10;49.30;;;;;;5045843;28;45439;-53
2020/12/15 02:56:50;;;;;;;9.98;7.15;;;22.00;49.20;;;;;;5027361;28;45399;-53
2020/12/15 02:59:15;;;;;;;10.25;7.32;;;22.00;49.20;;;;;;5027279;28;45440;-52
2020/12/15 03:01:43;;;;;;;9.82;6.70;;;22.00;49.20;;;;;;5036126;28;45322;-52
2020/12/15 03:04:09;;;;;;;7.95;6.50;;;22.00;49.20;;;;;;5046371;28;45334;-53
2020/12/15 03:06:35;;;;;;;9.70;7.10;;;22.00;49.20;;;;;;5030194;28;45197;-52
2020/12/15 03:09:01;;;;;;;8.40;6.55;;;22.00;49.00;;;;;;5022381;28;45507;-55
2020/12/15 03:11:27;;;;;;;11.18;7.07;;;22.10;49.10;;;;;;5027276;28;46314;-53
2020/12/15 03:13:53;;;;;;;9.18;7.15;;;22.20;49.00;;;;;;5045976;28;45516;-53
2020/12/15 03:16:20;;;;;;;9.85;6.95;;;22.20;48.90;;;;;;5038709;28;45342;-53
2020/12/15 03:18:45;;;;;;;9.75;6.88;;;22.30;48.90;;;;;;5010472;28;45386;-54
2020/12/15 03:21:15;;;;;;;8.93;6.43;;;22.30;48.80;;;;;;5022312;28;45660;-52
2020/12/15 03:23:40;;;;;;;8.30;5.95;;;22.40;48.70;;;;;;5046331;28;45351;-54
2020/12/15 03:26:06;;;;;;;9.20;6.88;;;22.40;48.60;;;;;;5045849;28;45417;-52
2020/12/15 03:28:31;;;;;;;8.00;5.68;;;22.40;48.60;;;;;;5041356;28;45323;-55
2020/12/15 03:30:57;;;;;;;8.55;6.55;;;22.40;48.40;;;;;;5026347;28;45380;-52
2020/12/15 03:33:23;;;;;;;8.45;6.20;;;22.50;48.50;;;;;;5024783;28;45401;-52
2020/12/15 03:35:48;;;;;;;8.65;6.32;;;22.50;48.50;;;;;;5026473;28;45420;-52
2020/12/15 03:38:14;;;;;;;9.40;6.78;;;22.60;48.50;;;;;;5027470;28;45285;-52
2020/12/15 03:40:39;;;;;;;8.90;6.65;;;22.60;48.40;;;;;;5029438;28;45391;-53
2020/12/15 03:43:05;;;;;;;9.27;6.40;;;22.60;48.30;;;;;;5029196;28;45343;-55
2020/12/15 03:45:31;;;;;;;8.98;6.00;;;22.60;48.20;;;;;;5028150;28;45565;-53
2020/12/15 03:47:57;;;;;;;7.90;5.93;;;22.70;48.20;;;;;;5027712;28;45558;-52
2020/12/15 03:50:23;;;;;;;8.60;6.13;;;22.70;48.10;;;;;;5027660;28;46223;-53
2020/12/15 03:52:48;;;;;;;7.47;5.47;;;22.70;48.10;;;;;;5030613;28;45356;-52
2020/12/15 03:55:14;;;;;;;7.43;5.60;;;22.80;48.10;;;;;;5030458;28;45442;-55
2020/12/15 03:57:40;;;;;;;8.52;6.40;;;22.80;48.00;;;;;;5030655;28;45507;-53
2020/12/15 04:00:06;;;;;;;7.60;5.95;;;22.80;48.00;;;;;;5031357;28;45508;-55
2020/12/15 04:02:31;;;;;;;6.30;5.35;;;22.80;47.90;;;;;;5032528;28;45364;-55
2020/12/15 04:04:57;;;;;;;8.75;5.97;;;22.80;47.90;;;;;;5032716;28;45342;-54
2020/12/15 04:07:22;;;;;;;8.77;5.97;;;22.90;47.80;;;;;;5032960;28;45296;-54
2020/12/15 04:09:48;;;;;;;8.50;6.15;;;22.90;47.80;;;;;;5032292;28;46774;-52
2020/12/15 04:12:14;;;;;;;7.38;5.68;;;22.90;47.80;;;;;;5032375;28;45229;-55
2020/12/15 04:14:40;;;;;;;8.10;5.68;;;22.90;47.70;;;;;;5032234;28;45351;-54
2020/12/15 04:17:06;;;;;;;8.55;5.70;;;22.90;47.70;;;;;;5049623;28;45393;-55
2020/12/15 04:19:31;;;;;;;9.15;6.55;;;23.00;47.70;;;;;;5032204;28;45550;-55
2020/12/15 04:21:57;;;;;;;8.27;5.60;;;23.00;47.70;;;;;;5031824;28;45395;-53
2020/12/15 04:24:22;;;;;;;8.80;6.10;;;23.00;47.60;;;;;;5048906;28;45296;-56
2020/12/15 04:26:48;;;;;;;8.02;5.68;;;23.00;47.60;;;;;;5032796;28;45304;-54
2020/12/15 04:29:14;;;;;;;8.68;5.85;;;23.00;47.60;;;;;;5031751;28;46208;-54
2020/12/15 04:31:39;;;;;;;8.20;5.95;;;23.00;47.50;;;;;;5048910;28;45316;-54
2020/12/15 04:34:05;;;;;;;8.32;6.07;;;23.10;47.50;;;;;;5048719;28;45342;-53
2020/12/15 04:36:31;;;;;;;8.20;5.72;;;23.10;47.50;;;;;;5032516;28;45242;-52
2020/12/15 04:38:56;;;;;;;6.35;4.30;;;23.10;47.50;;;;;;5024813;28;47154;-55
2020/12/15 04:41:22;;;;;;;9.82;6.18;;;23.10;47.40;;;;;;5012120;28;45206;-55
2020/12/15 04:43:48;;;;;;;6.80;4.85;;;23.10;47.40;;;;;;5012151;28;45299;-54
2020/12/15 04:46:14;;;;;;;6.82;4.80;;;23.10;47.40;;;;;;5029948;28;45584;-53
2020/12/15 04:48:42;;;;;;;7.40;5.55;;;23.10;47.30;;;;;;5011804;28;46243;-55
2020/12/15 04:51:08;;;;;;;7.32;5.63;;;23.10;47.30;;;;;;5012214;28;45344;-55
2020/12/15 04:53:34;;;;;;;8.07;5.55;;;23.20;47.30;;;;;;5011482;28;45389;-53
2020/12/15 04:55:59;;;;;;;6.97;5.05;;;23.20;47.30;;;;;;5012398;28;45409;-53
2020/12/15 04:58:25;;;;;;;7.43;5.28;;;23.20;47.30;;;;;;5011644;28;45341;-53
2020/12/15 05:00:51;;;;;;;7.43;5.15;;;23.20;47.20;;;;;;5018447;28;45512;-54
2020/12/15 05:03:20;;;;;;;6.72;4.88;;;23.20;47.20;;;;;;5048168;28;45413;-53
2020/12/15 05:05:47;;;;;;;6.95;5.15;;;23.20;47.20;;;;;;5048776;28;45541;-53
2020/12/15 05:08:12;;;;;;;7.82;6.07;;;23.20;47.20;;;;;;5048127;28;45462;-54
2020/12/15 05:10:38;;;;;;;6.85;5.18;;;23.20;47.20;;;;;;5031091;28;45390;-52
2020/12/15 05:13:03;;;;;;;6.57;4.93;;;23.20;47.10;;;;;;5048211;28;45473;-53
2020/12/15 05:15:32;;;;;;;6.88;4.75;;;23.30;47.10;;;;;;5048634;28;45330;-54
2020/12/15 05:18:02;;;;;;;6.35;4.80;;;23.30;47.10;;;;;;5047425;28;45399;-54
2020/12/15 05:20:28;;;;;;;8.63;6.10;;;23.30;47.10;;;;;;5048066;28;45440;-55
2020/12/15 05:22:54;;;;;;;7.40;5.35;;;23.30;47.10;;;;;;5048059;28;45423;-52
2020/12/15 05:25:37;;;;;;;6.18;4.60;;;23.30;47.00;;;;;;5048265;28;45452;-57
2020/12/15 05:28:10;;;;;;;7.38;5.18;;;23.30;47.00;;;;;;5047359;28;46221;-51
2020/12/15 05:30:35;;;;;;;6.85;5.07;;;23.40;47.00;;;;;;5047882;28;45311;-54
2020/12/15 05:33:01;;;;;;;6.97;4.63;;;23.40;47.00;;;;;;5047473;28;45479;-54
2020/12/15 05:35:33;;;;;;;7.68;5.30;;;23.40;47.00;;;;;;5048238;28;45378;-52
2020/12/15 05:38:00;;;;;;;7.63;5.15;;;23.40;47.00;;;;;;5047943;28;47175;-54
2020/12/15 05:40:26;;;;;;;8.20;5.25;;;23.40;46.90;;;;;;5047501;28;45417;-53
2020/12/15 05:42:58;;;;;;;8.07;5.65;;;23.40;47.00;;;;;;5043843;28;45496;-56
2020/12/15 05:45:24;;;;;;;8.13;5.45;;;23.40;47.00;;;;;;5037820;28;45305;-52
2020/12/15 05:47:51;;;;;;;7.82;5.40;;;23.50;47.10;;;;;;5018626;28;46895;-52
2020/12/15 05:50:25;;;;;;;5.90;4.50;;;23.40;47.10;;;;;;5020052;28;45385;-53
2020/12/15 05:53:09;;;;;;;8.05;5.53;;;23.50;47.10;;;;;;5020619;28;45419;-52
2020/12/15 05:55:34;;;;;;;8.63;5.35;;;23.50;47.10;;;;;;5021436;28;45479;-53
2020/12/15 05:58:00;;;;;;;8.27;5.53;;;23.50;47.10;;;;;;5018596;28;46333;-52
2020/12/15 06:00:27;;;;;;;7.75;5.60;;;23.60;47.10;;;;;;5019534;28;45574;-54
2020/12/15 06:02:57;;;;;;;9.57;6.10;;;23.50;47.00;;;;;;5020499;28;45465;-53
2020/12/15 06:05:27;;;;;;;9.90;6.68;;;23.50;46.90;;;;;;5034965;28;45633;-51
2020/12/15 06:07:54;;;;;;;9.55;6.30;;;23.50;46.80;;;;;;5021652;28;46994;-54
2020/12/15 06:10:20;;;;;;;9.90;6.47;;;23.60;46.80;;;;;;5021405;28;45602;-52
2020/12/15 06:12:48;;;;;;;8.10;6.22;;;23.60;46.70;;;;;;5020051;28;45414;-53
2020/12/15 06:15:14;;;;;;;8.82;6.60;;;23.60;46.70;;;;;;5031224;28;45441;-53
2020/12/15 06:17:40;;;;;;;9.52;6.50;;;23.70;46.70;;;;;;5017199;28;45537;-54
2020/12/15 06:20:05;;;;;;;9.50;5.90;;;23.70;46.60;;;;;;5017642;28;45459;-54
2020/12/15 06:22:31;;;;;;;9.80;6.55;;;23.70;46.60;;;;;;5019331;28;45419;-54
2020/12/15 06:25:00;;;;;;;11.65;7.35;;;23.70;46.50;;;;;;5018461;28;45502;-53
2020/12/15 06:27:35;;;;;;;15.07;7.57;;;23.70;46.40;;;;;;5030388;28;45609;-53
2020/12/15 06:30:06;;;;;;;16.02;8.90;;;23.70;46.10;;;;;;5046658;28;45278;-53
2020/12/15 06:32:32;;;;;;;12.30;8.02;;;23.70;46.10;;;;;;5046488;28;45402;-54
2020/12/15 06:34:58;;;;;;;10.00;7.22;;;23.70;46.10;;;;;;5027141;28;45987;-56
2020/12/15 06:37:24;;;;;;;12.57;7.25;;;23.80;46.30;;;;;;5052467;28;46962;-56
2020/12/15 06:40:00;;;;;;;12.50;6.60;;;23.90;46.30;;;;;;5048331;28;45397;-54
2020/12/15 06:42:26;;;;;;;8.60;6.82;;;24.10;46.30;;;;;;5020915;28;45317;-56
2020/12/15 06:45:07;;;;;;;12.52;7.30;;;24.20;46.30;;;;;;5047280;28;45280;-53
2020/12/15 06:47:34;;;;;;;10.55;6.93;;;24.30;46.10;;;;;;5062731;28;46295;-57
2020/12/15 06:50:10;;;;;;;12.05;6.90;;;24.30;46.10;;;;;;5033447;28;45347;-61
2020/12/15 06:52:36;;;;;;;10.32;6.22;;;24.40;45.90;;;;;;5038108;28;45266;-60
2020/12/15 06:55:02;;;;;;;10.65;6.18;;;24.50;45.80;;;;;;5029886;28;45241;-54
2020/12/15 06:57:32;;;;;;;14.65;7.47;;;24.50;45.70;;;;;;5062970;28;46872;-54
2020/12/15 06:59:59;;;;;;;17.17;7.55;;;24.50;45.50;;;;;;5059296;28;45446;-55
2020/12/15 07:02:31;;;;;;;17.67;8.80;;;24.50;45.50;;;;;;5032143;28;45714;-54
2020/12/15 07:05:12;;;;;;;19.20;8.73;;;24.40;45.40;;;;;;5015841;28;45562;-58
2020/12/15 07:07:46;;;;;;;16.85;7.82;;;24.40;45.50;;;;;;5027388;28;46232;-57
2020/12/15 07:10:12;;;;;;;15.98;7.78;;;24.50;45.80;;;;;;5046625;28;45287;-59
2020/12/15 07:12:37;;;;;;;13.93;7.40;;;24.50;45.70;;;;;;5027833;28;45484;-55
2020/12/15 07:15:03;;;;;;;12.88;7.70;;;24.50;45.70;;;;;;5052898;28;45355;-56
2020/12/15 07:17:29;;;;;;;12.48;6.97;;;24.50;45.80;;;;;;5060212;28;47151;-57
2020/12/15 07:19:54;;;;;;;14.88;7.57;;;24.50;45.90;;;;;;5056917;28;45586;-57
2020/12/15 07:22:22;;;;;;;14.73;6.68;;;24.50;46.00;;;;;;5026355;28;45366;-56
2020/12/15 07:24:48;;;;;;;11.85;7.00;;;24.50;46.00;;;;;;5027327;28;45435;-59
2020/12/15 07:27:13;;;;;;;12.18;6.38;;;24.50;46.10;;;;;;5029431;28;45453;-60
2020/12/15 07:29:39;;;;;;;10.38;6.45;;;24.50;46.40;;;;;;5045972;28;45406;-59
2020/12/15 07:32:05;;;;;;;11.05;7.13;;;24.60;46.60;;;;;;5046221;28;45312;-56
2020/12/15 07:34:30;;;;;;;11.50;6.40;;;24.60;46.40;;;;;;5049705;28;45416;-57
2020/12/15 07:36:56;;;;;;;12.70;6.80;;;24.60;46.40;;;;;;5049012;28;46102;-57
2020/12/15 07:39:21;;;;;;;9.70;6.32;;;24.70;46.40;;;;;;5047951;28;45439;-55
2020/12/15 07:42:04;;;;;;;12.00;6.70;;;24.70;46.40;;;;;;5048260;28;45369;-55
2020/12/15 07:44:29;;;;;;;11.52;6.70;;;24.70;46.50;;;;;;5068193;28;45631;-58
2020/12/15 07:46:55;;;;;;;13.13;5.95;;;24.70;46.50;;;;;;5045837;28;46005;-59
2020/12/15 07:49:21;;;;;;;12.98;5.82;;;24.70;46.60;;;;;;5023917;28;45385;-60
2020/12/15 07:51:47;;;;;;;12.07;6.13;;;24.70;46.60;;;;;;5032284;28;45340;-56
2020/12/15 07:54:13;;;;;;;23.65;7.63;;;24.70;46.60;;;;;;5031508;28;45538;-53
2020/12/15 07:56:38;;;;;;;9.93;5.95;;;24.70;46.70;;;;;;5032296;28;45300;-53
2020/12/15 07:59:04;;;;;;;13.45;6.85;;;24.70;46.70;;;;;;5045196;28;45465;-53
2020/12/15 08:01:30;;;;;;;8.10;5.30;;;24.70;46.70;;;;;;5029705;28;45517;-53
2020/12/15 08:04:13;;;;;;;9.30;5.45;;;24.60;46.60;;;;;;5037974;28;45416;-55
2020/12/15 08:06:41;;;;;;;8.40;6.03;;;24.60;46.70;;;;;;5064420;28;46003;-58
2020/12/15 08:09:07;;;;;;;8.77;5.60;;;24.60;46.70;;;;;;5063465;28;45367;-57
2020/12/15 08:11:33;;;;;;;7.85;5.43;;;24.70;46.80;;;;;;5032281;28;45372;-57
2020/12/15 08:14:02;;;;;;;10.23;5.88;;;24.70;46.90;;;;;;5029846;28;45506;-60
2020/12/15 08:16:28;;;;;;;10.30;5.40;;;24.70;46.80;;;;;;5032203;28;45405;-60
2020/12/15 08:19:01;;;;;;;7.68;5.43;;;24.80;46.80;;;;;;5029498;28;45351;-58
2020/12/15 08:21:48;;;;;;;9.15;5.40;;;24.80;46.80;;;;;;5031910;28;45322;-55
2020/12/15 08:24:15;;;;;;;11.75;5.75;;;24.80;46.70;;;;;;5047567;28;45534;-56
2020/12/15 08:26:41;;;;;;;8.13;4.88;;;24.70;46.80;;;;;;5031397;28;47148;-55
2020/12/15 08:29:11;;;;;;;11.70;5.03;;;24.70;46.80;;;;;;5030255;28;45504;-58
2020/12/15 08:31:38;;;;;;;9.40;4.70;;;24.70;46.90;;;;;;5035058;28;45463;-56
2020/12/15 08:34:20;;;;;;;12.63;5.65;;;24.70;46.90;;;;;;5028970;28;45658;-59
2020/12/15 08:36:50;;;;;;;9.23;5.13;;;24.60;47.00;;;;;;5030843;28;46425;-59
2020/12/15 08:39:23;;;;;;;7.10;4.88;;;24.60;47.00;;;;;;5048868;28;45467;-57
2020/12/15 08:41:56;;;;;;;12.50;5.70;;;24.70;47.10;;;;;;5027991;28;45315;-58
2020/12/15 08:44:22;;;;;;;10.05;5.68;;;24.70;47.10;;;;;;5029228;28;45447;-55
2020/12/15 08:46:53;;;;;;;11.90;6.03;;;24.60;47.00;;;;;;5047675;28;45430;-55
2020/12/15 08:49:19;;;;;;;7.13;4.45;;;24.60;47.00;;;;;;5049125;28;45305;-56
2020/12/15 08:51:45;;;;;;;9.80;5.22;;;24.60;47.00;;;;;;5039127;28;45581;-54
2020/12/15 08:54:12;;;;;;;7.93;5.40;;;24.70;47.00;;;;;;5051703;28;45509;-59
2020/12/15 08:56:38;;;;;;;8.07;4.47;;;24.70;47.00;;;;;;5031189;28;46633;-56
2020/12/15 08:59:17;;;;;;;12.32;7.05;;;24.60;47.00;;;;;;5021016;28;45730;-54
2020/12/15 09:01:43;;;;;;;9.73;6.78;;;24.60;45.80;;;;;;5048790;28;45307;-56
2020/12/15 09:04:12;;;;;;;9.65;5.43;;;24.50;46.00;;;;;;5029463;28;45865;-59
2020/12/15 09:06:38;;;;;;;9.88;5.25;;;24.50;46.30;;;;;;5030889;28;47485;-58
2020/12/15 09:09:05;;;;;;;9.05;4.95;;;24.50;46.30;;;;;;5028540;28;45268;-58
2020/12/15 09:11:30;;;;;;;9.40;5.30;;;24.70;46.30;;;;;;5026157;28;45410;-56
2020/12/15 09:14:00;;;;;;;8.43;5.15;;;24.60;46.40;;;;;;5035594;28;45414;-61
2020/12/15 09:16:32;;;;;;;7.63;4.97;;;24.60;46.60;;;;;;5040179;28;47083;-59
2020/12/15 09:19:09;;;;;;;7.30;4.70;;;24.60;46.80;;;;;;5021318;28;45355;-61
2020/12/15 09:21:34;;;;;;;13.38;5.72;;;24.60;46.80;;;;;;5041465;28;45434;-57
2020/12/15 09:24:01;;;;;;;6.82;4.43;;;24.50;46.90;;;;;;5030808;28;45355;-57
2020/12/15 09:26:29;;;;;;;10.73;5.00;;;24.50;46.90;;;;;;5048487;28;45459;-61
2020/12/15 09:29:06;;;;;;;8.55;4.88;;;24.50;47.00;;;;;;5034367;28;45529;-58
2020/12/15 09:31:33;;;;;;;7.80;4.55;;;24.50;46.90;;;;;;5026803;28;45352;-57
2020/12/15 09:33:58;;;;;;;6.25;4.28;;;24.60;47.00;;;;;;5026123;28;45534;-57
2020/12/15 09:36:25;;;;;;;7.72;4.70;;;24.70;47.00;;;;;;5022985;28;47063;-59
2020/12/15 09:38:52;;;;;;;8.15;4.82;;;24.80;46.90;;;;;;5027140;28;45337;-59
2020/12/15 09:41:19;;;;;;;10.13;5.55;;;24.80;46.70;;;;;;5035336;28;45365;-58
2020/12/15 09:43:46;;;;;;;7.88;5.13;;;24.90;46.60;;;;;;5041913;28;45358;-58
2020/12/15 09:46:11;;;;;;;8.32;4.07;;;24.90;46.50;;;;;;5051580;28;46293;-57
2020/12/15 09:48:37;;;;;;;7.15;4.32;;;24.90;46.40;;;;;;5053171;28;45497;-57
2020/12/15 09:51:03;;;;;;;9.98;4.75;;;25.00;46.40;;;;;;5039399;28;45465;-57
2020/12/15 09:53:29;;;;;;;7.97;4.50;;;25.00;46.30;;;;;;5055895;28;45427;-56
2020/12/15 09:56:05;;;;;;;5.97;3.90;;;25.00;46.20;;;;;;5048912;28;46248;-58
2020/12/15 09:58:33;;;;;;;8.18;4.60;;;25.00;46.10;;;;;;5044448;28;45473;-60
2020/12/15 10:01:05;;;;;;;7.18;4.70;;;25.00;46.50;;;;;;5054128;28;45339;-60
2020/12/15 10:03:31;;;;;;;8.88;4.90;;;25.00;46.40;;;;;;5010792;28;45355;-61
2020/12/15 10:05:56;;;;;;;10.30;4.80;;;24.90;46.50;;;;;;5026460;28;45413;-56
2020/12/15 10:08:22;;;;;;;6.80;4.05;;;24.90;46.60;;;;;;5035743;28;45130;-57
2020/12/15 10:10:50;;;;;;;7.68;4.70;;;24.80;46.60;;;;;;5018437;28;45516;-59
2020/12/15 10:13:22;;;;;;;10.00;5.05;;;24.80;46.70;;;;;;5029228;28;45531;-58
2020/12/15 10:15:49;;;;;;;9.82;5.35;;;24.80;46.60;;;;;;5025809;28;46008;-61
2020/12/15 10:18:16;;;;;;;6.50;4.40;;;24.70;46.60;;;;;;5019392;28;45529;-58
2020/12/15 10:20:41;;;;;;;10.30;5.82;;;24.70;46.50;;;;;;5024893;28;45470;-60
2020/12/15 10:23:07;;;;;;;11.15;5.97;;;24.70;46.50;;;;;;4992064;28;45356;-60
2020/12/15 10:25:33;;;;;;;11.80;6.10;;;24.70;46.50;;;;;;4991906;28;45400;-61
2020/12/15 10:27:59;;;;;;;19.05;6.35;;;24.60;46.60;;;;;;5023915;28;45394;-61
2020/12/15 10:30:25;;;;;;;13.38;6.47;;;24.60;46.70;;;;;;5005985;28;45481;-59
2020/12/15 10:32:50;;;;;;;11.38;6.30;;;24.60;46.60;;;;;;5012953;28;45665;-59
2020/12/15 10:35:16;;;;;;;9.38;5.88;;;24.60;46.80;;;;;;5008368;28;46894;-59
2020/12/15 10:37:44;;;;;;;10.27;6.05;;;24.60;46.80;;;;;;5008925;28;45528;-59
2020/12/15 10:40:10;;;;;;;10.95;6.28;;;24.60;47.00;;;;;;5024376;28;45345;-59
2020/12/15 10:42:36;;;;;;;9.52;6.32;;;24.50;47.10;;;;;;5012930;28;45858;-61
2020/12/15 10:45:03;;;;;;;8.05;5.75;;;24.50;47.40;;;;;;5024685;28;46150;-59
2020/12/15 10:47:30;;;;;;;14.55;5.88;;;24.50;47.50;;;;;;5021707;28;45343;-61
2020/12/15 10:49:58;;;;;;;9.50;6.18;;;24.50;47.70;;;;;;4999764;28;45348;-59
2020/12/15 10:52:27;;;;;;;8.00;5.07;;;24.60;47.70;;;;;;5026217;28;45518;-60
2020/12/15 10:54:52;;;;;;;8.73;5.03;;;24.60;47.60;;;;;;5022042;28;46628;-60
2020/12/15 10:57:18;;;;;;;7.72;4.68;;;24.70;47.60;;;;;;5017734;28;45489;-59
2020/12/15 10:59:44;;;;;;;9.68;4.75;;;24.70;47.30;;;;;;5025868;28;45466;-60
2020/12/15 11:02:12;;;;;;;8.80;4.95;;;24.80;47.30;;;;;;5019069;28;45413;-56
2020/12/15 11:04:38;;;;;;;9.27;4.57;;;24.80;47.30;;;;;;5029954;28;45871;-60
2020/12/15 11:07:05;;;;;;;8.63;4.90;;;24.90;47.20;;;;;;5044572;28;45710;-60
2020/12/15 11:09:32;;;;;;;9.85;4.32;;;24.70;47.30;;;;;;4993344;28;45423;-61
2020/12/15 11:11:58;;;;;;;7.20;4.80;;;24.70;47.20;;;;;;5028368;28;45487;-58
2020/12/15 11:14:23;;;;;;;12.13;5.30;;;24.60;47.30;;;;;;5027665;28;45462;-60
2020/12/15 11:16:49;;;;;;;8.75;4.45;;;24.70;47.40;;;;;;5024825;28;45594;-60
2020/12/15 11:19:15;;;;;;;8.93;4.93;;;24.60;47.30;;;;;;4995361;28;45444;-60
2020/12/15 11:21:41;;;;;;;11.70;4.63;;;24.50;47.30;;;;;;4991962;28;45392;-61
2020/12/15 11:24:06;;;;;;;9.18;4.43;;;24.50;47.90;;;;;;4996650;28;46199;-60
2020/12/15 11:26:32;;;;;;;10.95;5.45;;;24.40;47.50;;;;;;5015547;28;45424;-63
2020/12/15 11:28:58;;;;;;;7.20;4.65;;;24.40;47.60;;;;;;4985397;28;45290;-60
2020/12/15 11:31:23;;;;;;;9.85;4.20;;;24.40;47.50;;;;;;4998114;28;45477;-58
2020/12/15 11:33:49;;;;;;;8.13;4.75;;;24.40;47.70;;;;;;5031654;28;46757;-58
2020/12/15 11:36:15;;;;;;;8.02;4.40;;;24.40;47.70;;;;;;5032024;28;45702;-59
2020/12/15 11:38:43;;;;;;;8.55;4.60;;;24.40;47.80;;;;;;5047136;28;45394;-63
2020/12/15 11:41:10;;;;;;;7.50;4.22;;;24.30;47.80;;;;;;5033779;28;45557;-63
2020/12/15 11:43:35;;;;;;;9.10;4.25;;;24.30;47.70;;;;;;5031825;28;45262;-63
2020/12/15 11:46:01;;;;;;;8.98;4.43;;;24.30;47.60;;;;;;5047759;28;45349;-61
2020/12/15 11:48:26;;;;;;;6.50;3.95;;;24.30;47.70;;;;;;5027183;28;45607;-62
2020/12/15 11:50:52;;;;;;;10.02;4.75;;;24.30;47.70;;;;;;5034542;28;45245;-59
2020/12/15 11:53:18;;;;;;;7.95;4.63;;;24.30;47.80;;;;;;5030044;28;45369;-62
2020/12/15 11:55:43;;;;;;;7.93;4.50;;;24.20;47.20;;;;;;5045428;28;45253;-61
2020/12/15 11:58:09;;;;;;;28.45;4.97;;;24.20;47.40;;;;;;5040463;28;45341;-59
2020/12/15 12:00:34;;;;;;;7.15;4.70;;;24.20;47.30;;;;;;5021536;28;45368;-61
2020/12/15 12:03:00;;;;;;;7.40;4.22;;;24.30;47.40;;;;;;5029178;28;45423;-61
2020/12/15 12:05:27;;;;;;;8.13;4.18;;;24.30;47.50;;;;;;5025987;28;45916;-61
2020/12/15 12:07:53;;;;;;;6.30;4.15;;;24.30;47.80;;;;;;5042559;28;45513;-61
2020/12/15 12:10:18;;;;;;;8.50;4.20;;;24.30;48.00;;;;;;5029214;28;45597;-59
2020/12/15 12:12:44;;;;;;;7.05;4.80;;;24.20;47.50;;;;;;5027022;28;46207;-61
2020/12/15 12:15:10;;;;;;;7.53;4.75;;;24.10;47.60;;;;;;5033307;28;45407;-60
2020/12/15 12:17:35;;;;;;;10.57;4.97;;;23.90;47.10;;;;;;5031827;28;45518;-59
2020/12/15 12:20:01;;;;;;;7.07;4.10;;;23.90;47.40;;;;;;5031205;28;45381;-60
2020/12/15 12:22:28;;;;;;;8.70;5.40;;;23.90;47.70;;;;;;5048405;28;46413;-59
2020/12/15 12:24:53;;;;;;;8.93;4.75;;;23.90;47.80;;;;;;5022951;28;45369;-57
2020/12/15 12:27:19;;;;;;;7.03;4.45;;;23.90;47.80;;;;;;5032067;28;45268;-56
2020/12/15 12:29:44;;;;;;;9.15;4.90;;;23.90;47.60;;;;;;5045481;28;45230;-58
2020/12/15 12:32:10;;;;;;;8.95;3.95;;;23.90;47.70;;;;;;5026527;28;45664;-57
2020/12/15 12:34:36;;;;;;;8.25;4.82;;;23.90;47.60;;;;;;5031608;28;45412;-56
2020/12/15 12:37:02;;;;;;;8.50;4.68;;;23.90;47.70;;;;;;5043562;28;45555;-55
2020/12/15 12:39:32;;;;;;;14.23;4.57;;;23.80;47.70;;;;;;5029467;28;45935;-58
2020/12/15 12:41:58;;;;;;;9.65;4.72;;;23.80;47.60;;;;;;5030802;28;46235;-56